EJU486M LFLL-LFBD
Flight info
| Callsign | EJU486M |
|---|---|
| Flight time | 0h 51m |
| Altitude | 28000 |
| Route | BELEP H38 TIS/N0394F270 DCT LMG |
| Aircraft | A319/M-SDE2E3FGIJ1RWXYZ/LB1 |
Departure
| Time | 2026-05-08 16:54 |
|---|---|
| Airport | Lyon Saint-Exupéry Airport (LFLL) |
Arrival
| Time | 2026-05-08 17:45 |
|---|---|
| Airport | Bordeaux–Mérignac Airport (LFBD) |
| Time | Latitude | Longitude | Altitude | Speed | Heading |
|---|---|---|---|---|---|
| 2026-05-08 16:23 | 45.71547 | 5.07735 | 797 ft | 0 kts | 15° |
| 2026-05-08 16:42 | 45.71528 | 5.07728 | 797 ft | 4 kts | 15° |
| 2026-05-08 16:42 | 45.71504 | 5.07715 | 797 ft | 4 kts | 37° |
| 2026-05-08 16:43 | 45.71494 | 5.07693 | 797 ft | 3 kts | 104° |
| 2026-05-08 16:43 | 45.71497 | 5.07677 | 797 ft | 0 kts | 104° |
| 2026-05-08 16:47 | 45.71495 | 5.07688 | 797 ft | 4 kts | 104° |
| 2026-05-08 16:47 | 45.71481 | 5.07766 | 797 ft | 12 kts | 104° |
| 2026-05-08 16:47 | 45.71441 | 5.07902 | 797 ft | 18 kts | 107° |
| 2026-05-08 16:48 | 45.71452 | 5.08074 | 802 ft | 17 kts | 107° |
| 2026-05-08 16:48 | 45.71416 | 5.08256 | 803 ft | 21 kts | 102° |
| 2026-05-08 16:48 | 45.71416 | 5.08451 | 806 ft | 14 kts | 84° |
| 2026-05-08 16:48 | 45.71494 | 5.08519 | 804 ft | 18 kts | 354° |
| 2026-05-08 16:49 | 45.71638 | 5.08501 | 803 ft | 23 kts | 355° |
| 2026-05-08 16:49 | 45.71811 | 5.08481 | 802 ft | 27 kts | 355° |
| 2026-05-08 16:49 | 45.72011 | 5.08452 | 802 ft | 31 kts | 354° |
| 2026-05-08 16:49 | 45.72194 | 5.08431 | 801 ft | 27 kts | 355° |
| 2026-05-08 16:50 | 45.72386 | 5.08409 | 798 ft | 28 kts | 355° |
| 2026-05-08 16:50 | 45.72576 | 5.08386 | 795 ft | 27 kts | 355° |
| 2026-05-08 16:50 | 45.72773 | 5.08361 | 791 ft | 29 kts | 355° |
| 2026-05-08 16:50 | 45.72969 | 5.08338 | 789 ft | 29 kts | 355° |
| 2026-05-08 16:51 | 45.73174 | 5.08311 | 785 ft | 30 kts | 355° |
| 2026-05-08 16:51 | 45.73368 | 5.08289 | 781 ft | 28 kts | 355° |
| 2026-05-08 16:51 | 45.73560 | 5.08265 | 780 ft | 26 kts | 355° |
| 2026-05-08 16:51 | 45.73747 | 5.08244 | 776 ft | 28 kts | 355° |
| 2026-05-08 16:52 | 45.73941 | 5.08219 | 775 ft | 28 kts | 355° |
| 2026-05-08 16:52 | 45.74138 | 5.08254 | 772 ft | 29 kts | 13° |
| 2026-05-08 16:52 | 45.74312 | 5.08319 | 771 ft | 21 kts | 31° |
| 2026-05-08 16:52 | 45.74359 | 5.08495 | 772 ft | 19 kts | 84° |
| 2026-05-08 16:53 | 45.74148 | 5.08659 | 773 ft | 41 kts | 175° |
| 2026-05-08 16:53 | 45.73606 | 5.08725 | 780 ft | 112 kts | 175° |
| 2026-05-08 16:53 | 45.72631 | 5.08840 | 815 ft | 164 kts | 176° |
| 2026-05-08 16:54 | 45.71512 | 5.08986 | 1493 ft | 162 kts | 173° |
| 2026-05-08 16:54 | 45.70378 | 5.09151 | 2170 ft | 167 kts | 174° |
| 2026-05-08 16:54 | 45.69138 | 5.09321 | 2557 ft | 191 kts | 175° |
| 2026-05-08 16:54 | 45.67711 | 5.09497 | 2958 ft | 218 kts | 175° |
| 2026-05-08 16:55 | 45.66145 | 5.09671 | 3707 ft | 231 kts | 176° |
| 2026-05-08 16:55 | 45.64527 | 5.09851 | 4729 ft | 234 kts | 177° |
| 2026-05-08 16:55 | 45.62893 | 5.10029 | 5692 ft | 238 kts | 179° |
| 2026-05-08 16:55 | 45.61239 | 5.09562 | 6341 ft | 256 kts | 210° |
| 2026-05-08 16:56 | 45.60039 | 5.07660 | 7103 ft | 267 kts | 245° |
| 2026-05-08 16:56 | 45.59787 | 5.05001 | 7989 ft | 279 kts | 272° |
| 2026-05-08 16:56 | 45.59844 | 5.02229 | 8951 ft | 281 kts | 262° |
| 2026-05-08 16:56 | 45.59333 | 4.99544 | 9897 ft | 281 kts | 243° |
| 2026-05-08 16:57 | 45.58423 | 4.96987 | 10451 ft | 300 kts | 242° |
| 2026-05-08 16:57 | 45.57497 | 4.94228 | 10983 ft | 315 kts | 244° |
| 2026-05-08 16:57 | 45.56566 | 4.91358 | 11772 ft | 321 kts | 244° |
| 2026-05-08 16:57 | 45.55637 | 4.88442 | 12622 ft | 325 kts | 245° |
| 2026-05-08 16:58 | 45.55140 | 4.85282 | 13390 ft | 334 kts | 268° |
| 2026-05-08 16:58 | 45.55665 | 4.82029 | 14136 ft | 344 kts | 295° |
| 2026-05-08 16:58 | 45.57156 | 4.79344 | 14854 ft | 351 kts | 315° |
| 2026-05-08 16:58 | 45.58851 | 4.76826 | 15605 ft | 352 kts | 306° |
| 2026-05-08 16:59 | 45.60154 | 4.73864 | 16342 ft | 352 kts | 295° |
| 2026-05-08 16:59 | 45.61242 | 4.70742 | 17100 ft | 354 kts | 293° |
| 2026-05-08 16:59 | 45.62287 | 4.67541 | 17852 ft | 357 kts | 292° |
| 2026-05-08 16:59 | 45.63305 | 4.64288 | 18525 ft | 360 kts | 291° |
| 2026-05-08 17:00 | 45.64314 | 4.61006 | 19145 ft | 363 kts | 291° |
| 2026-05-08 17:00 | 45.65335 | 4.57685 | 19758 ft | 366 kts | 292° |
| 2026-05-08 17:00 | 45.66370 | 4.54339 | 20376 ft | 369 kts | 292° |
| 2026-05-08 17:00 | 45.67423 | 4.50967 | 20988 ft | 373 kts | 293° |
| 2026-05-08 17:01 | 45.68486 | 4.47577 | 21608 ft | 376 kts | 293° |
| 2026-05-08 17:01 | 45.69561 | 4.44147 | 22250 ft | 379 kts | 294° |
| 2026-05-08 17:01 | 45.70641 | 4.40692 | 22878 ft | 381 kts | 294° |
| 2026-05-08 17:01 | 45.71724 | 4.37220 | 23483 ft | 385 kts | 295° |
| 2026-05-08 17:02 | 45.72818 | 4.33705 | 23985 ft | 388 kts | 294° |
| 2026-05-08 17:02 | 45.73917 | 4.30165 | 24492 ft | 390 kts | 294° |
| 2026-05-08 17:02 | 45.75018 | 4.26612 | 24976 ft | 392 kts | 294° |
| 2026-05-08 17:02 | 45.76127 | 4.23021 | 25441 ft | 395 kts | 294° |
| 2026-05-08 17:03 | 45.77239 | 4.19415 | 25910 ft | 398 kts | 294° |
| 2026-05-08 17:03 | 45.78364 | 4.15779 | 26386 ft | 400 kts | 294° |
| 2026-05-08 17:03 | 45.79339 | 4.12051 | 26845 ft | 402 kts | 285° |
| 2026-05-08 17:03 | 45.79978 | 4.08139 | 27303 ft | 404 kts | 282° |
| 2026-05-08 17:04 | 45.80594 | 4.04199 | 27755 ft | 406 kts | 282° |
| 2026-05-08 17:04 | 45.81214 | 4.00240 | 27936 ft | 406 kts | 282° |
| 2026-05-08 17:04 | 45.81821 | 3.96370 | 27966 ft | 389 kts | 282° |
| 2026-05-08 17:04 | 45.82403 | 3.92668 | 27968 ft | 376 kts | 282° |
| 2026-05-08 17:05 | 45.82976 | 3.89025 | 27964 ft | 373 kts | 282° |
| 2026-05-08 17:05 | 45.83543 | 3.85397 | 27964 ft | 373 kts | 282° |
| 2026-05-08 17:05 | 45.84106 | 3.81772 | 27964 ft | 372 kts | 282° |
| 2026-05-08 17:05 | 45.84664 | 3.78147 | 27963 ft | 372 kts | 282° |
| 2026-05-08 17:06 | 45.85224 | 3.74515 | 27962 ft | 372 kts | 282° |
| 2026-05-08 17:06 | 45.85785 | 3.70890 | 27964 ft | 373 kts | 282° |
| 2026-05-08 17:06 | 45.86346 | 3.67264 | 27963 ft | 372 kts | 282° |
| 2026-05-08 17:06 | 45.86907 | 3.63636 | 27966 ft | 372 kts | 282° |
| 2026-05-08 17:07 | 45.87464 | 3.60011 | 27967 ft | 372 kts | 282° |
| 2026-05-08 17:07 | 45.87993 | 3.56373 | 27967 ft | 372 kts | 278° |
| 2026-05-08 17:07 | 45.88153 | 3.52677 | 27971 ft | 372 kts | 269° |
| 2026-05-08 17:07 | 45.88089 | 3.48968 | 27972 ft | 372 kts | 269° |
| 2026-05-08 17:08 | 45.88027 | 3.45261 | 27971 ft | 372 kts | 269° |
| 2026-05-08 17:08 | 45.87964 | 3.41554 | 27973 ft | 372 kts | 269° |
| 2026-05-08 17:08 | 45.87902 | 3.37848 | 27977 ft | 372 kts | 269° |
| 2026-05-08 17:08 | 45.87841 | 3.34139 | 27980 ft | 372 kts | 269° |
| 2026-05-08 17:09 | 45.87781 | 3.30433 | 27982 ft | 372 kts | 269° |
| 2026-05-08 17:09 | 45.87721 | 3.26723 | 27986 ft | 372 kts | 269° |
| 2026-05-08 17:09 | 45.87659 | 3.23019 | 27989 ft | 372 kts | 268° |
| 2026-05-08 17:09 | 45.87591 | 3.19307 | 27991 ft | 372 kts | 268° |
| 2026-05-08 17:10 | 45.87521 | 3.15595 | 27992 ft | 372 kts | 268° |
| 2026-05-08 17:10 | 45.87452 | 3.11889 | 27990 ft | 372 kts | 268° |
| 2026-05-08 17:10 | 45.87381 | 3.08174 | 27983 ft | 373 kts | 268° |
| 2026-05-08 17:10 | 45.87307 | 3.04454 | 27977 ft | 373 kts | 268° |
| 2026-05-08 17:11 | 45.87234 | 3.00726 | 27973 ft | 374 kts | 268° |
| 2026-05-08 17:11 | 45.87160 | 2.96996 | 27920 ft | 375 kts | 268° |
| 2026-05-08 17:11 | 45.87090 | 2.93262 | 27767 ft | 373 kts | 268° |
| 2026-05-08 17:11 | 45.87016 | 2.89536 | 27939 ft | 375 kts | 268° |
| 2026-05-08 17:12 | 45.86937 | 2.85768 | 27970 ft | 378 kts | 268° |
| 2026-05-08 17:12 | 45.86854 | 2.82005 | 27980 ft | 378 kts | 268° |
| 2026-05-08 17:12 | 45.86767 | 2.78235 | 27968 ft | 378 kts | 268° |
| 2026-05-08 17:12 | 45.86682 | 2.74475 | 27978 ft | 377 kts | 267° |
| 2026-05-08 17:13 | 45.86598 | 2.70712 | 27974 ft | 377 kts | 268° |
| 2026-05-08 17:13 | 45.86514 | 2.66954 | 27970 ft | 377 kts | 267° |
| 2026-05-08 17:13 | 45.86431 | 2.63199 | 27968 ft | 377 kts | 267° |
| 2026-05-08 17:13 | 45.86345 | 2.59452 | 27968 ft | 377 kts | 267° |
| 2026-05-08 17:14 | 45.86255 | 2.55706 | 27968 ft | 377 kts | 267° |
| 2026-05-08 17:14 | 45.86165 | 2.51949 | 27966 ft | 377 kts | 267° |
| 2026-05-08 17:14 | 45.86076 | 2.48190 | 27962 ft | 377 kts | 267° |
| 2026-05-08 17:14 | 45.85987 | 2.44444 | 27962 ft | 377 kts | 267° |
| 2026-05-08 17:15 | 45.85895 | 2.40686 | 27961 ft | 377 kts | 267° |
| 2026-05-08 17:15 | 45.85799 | 2.36928 | 27960 ft | 376 kts | 267° |
| 2026-05-08 17:15 | 45.85701 | 2.33183 | 27965 ft | 377 kts | 266° |
| 2026-05-08 17:15 | 45.85601 | 2.29420 | 27957 ft | 377 kts | 266° |
| 2026-05-08 17:16 | 45.85499 | 2.25663 | 27951 ft | 378 kts | 266° |
| 2026-05-08 17:16 | 45.85398 | 2.21889 | 27949 ft | 378 kts | 266° |
| 2026-05-08 17:16 | 45.85297 | 2.18110 | 27949 ft | 379 kts | 266° |
| 2026-05-08 17:16 | 45.85197 | 2.14340 | 27946 ft | 379 kts | 266° |
| 2026-05-08 17:17 | 45.85130 | 2.11838 | 27951 ft | 379 kts | 266° |
| 2026-05-08 17:17 | 45.85028 | 2.08050 | 27952 ft | 380 kts | 266° |
| 2026-05-08 17:17 | 45.84920 | 2.04261 | 27954 ft | 380 kts | 266° |
| 2026-05-08 17:17 | 45.84809 | 2.00471 | 27956 ft | 380 kts | 266° |
| 2026-05-08 17:18 | 45.84697 | 1.96695 | 27970 ft | 380 kts | 266° |
| 2026-05-08 17:18 | 45.84585 | 1.92903 | 27958 ft | 381 kts | 266° |
| 2026-05-08 17:18 | 45.84475 | 1.89114 | 27952 ft | 381 kts | 266° |
| 2026-05-08 17:18 | 45.84365 | 1.85307 | 27950 ft | 382 kts | 266° |
| 2026-05-08 17:19 | 45.84252 | 1.81505 | 27947 ft | 383 kts | 266° |
| 2026-05-08 17:19 | 45.84137 | 1.77686 | 27948 ft | 383 kts | 266° |
| 2026-05-08 17:19 | 45.84020 | 1.73862 | 27949 ft | 384 kts | 266° |
| 2026-05-08 17:19 | 45.83901 | 1.70049 | 27953 ft | 384 kts | 266° |
| 2026-05-08 17:20 | 45.83780 | 1.66221 | 27958 ft | 384 kts | 266° |
| 2026-05-08 17:20 | 45.83660 | 1.62391 | 27960 ft | 384 kts | 266° |
| 2026-05-08 17:20 | 45.83539 | 1.58572 | 27961 ft | 384 kts | 266° |
| 2026-05-08 17:20 | 45.83414 | 1.54739 | 27967 ft | 384 kts | 265° |
| 2026-05-08 17:21 | 45.83285 | 1.50903 | 27966 ft | 385 kts | 265° |
| 2026-05-08 17:21 | 45.83155 | 1.47075 | 27962 ft | 385 kts | 265° |
| 2026-05-08 17:21 | 45.83025 | 1.43228 | 27961 ft | 386 kts | 265° |
| 2026-05-08 17:21 | 45.82896 | 1.39379 | 27961 ft | 386 kts | 265° |
| 2026-05-08 17:22 | 45.82766 | 1.35541 | 27962 ft | 386 kts | 265° |
| 2026-05-08 17:22 | 45.82634 | 1.31687 | 27963 ft | 387 kts | 265° |
| 2026-05-08 17:22 | 45.82501 | 1.27831 | 27965 ft | 387 kts | 265° |
| 2026-05-08 17:22 | 45.82365 | 1.23986 | 27966 ft | 387 kts | 265° |
| 2026-05-08 17:23 | 45.82230 | 1.20128 | 27967 ft | 387 kts | 265° |
| 2026-05-08 17:23 | 45.82093 | 1.16283 | 27977 ft | 387 kts | 264° |
| 2026-05-08 17:23 | 45.81952 | 1.12422 | 27972 ft | 387 kts | 264° |
| 2026-05-08 17:23 | 45.81808 | 1.08559 | 27970 ft | 388 kts | 264° |
| 2026-05-08 17:24 | 45.81411 | 1.04766 | 27968 ft | 385 kts | 253° |
| 2026-05-08 17:24 | 45.80529 | 1.01153 | 27966 ft | 381 kts | 242° |
| 2026-05-08 17:24 | 45.79222 | 0.97879 | 27872 ft | 379 kts | 232° |
| 2026-05-08 17:24 | 45.77682 | 0.94845 | 27609 ft | 376 kts | 231° |
| 2026-05-08 17:25 | 45.76140 | 0.91824 | 27345 ft | 374 kts | 231° |
| 2026-05-08 17:25 | 45.74610 | 0.88823 | 27080 ft | 372 kts | 231° |
| 2026-05-08 17:25 | 45.73093 | 0.85847 | 26819 ft | 370 kts | 231° |
| 2026-05-08 17:25 | 45.71576 | 0.82874 | 26571 ft | 369 kts | 231° |
| 2026-05-08 17:26 | 45.70065 | 0.79913 | 26316 ft | 367 kts | 231° |
| 2026-05-08 17:26 | 45.68563 | 0.76974 | 26076 ft | 366 kts | 230° |
| 2026-05-08 17:26 | 45.67060 | 0.74037 | 25827 ft | 365 kts | 230° |
| 2026-05-08 17:26 | 45.65567 | 0.71123 | 25582 ft | 363 kts | 230° |
| 2026-05-08 17:27 | 45.64074 | 0.68210 | 25341 ft | 362 kts | 230° |
| 2026-05-08 17:27 | 45.62588 | 0.65305 | 25096 ft | 361 kts | 230° |
| 2026-05-08 17:27 | 45.61112 | 0.62417 | 24854 ft | 360 kts | 230° |
| 2026-05-08 17:27 | 45.59632 | 0.59538 | 24615 ft | 359 kts | 230° |
| 2026-05-08 17:28 | 45.58156 | 0.56674 | 24367 ft | 355 kts | 230° |
| 2026-05-08 17:28 | 45.56703 | 0.53856 | 23968 ft | 352 kts | 230° |
| 2026-05-08 17:28 | 45.55254 | 0.51048 | 23522 ft | 350 kts | 230° |
| 2026-05-08 17:28 | 45.53809 | 0.48255 | 23017 ft | 348 kts | 230° |
| 2026-05-08 17:29 | 45.52381 | 0.45494 | 22575 ft | 345 kts | 230° |
| 2026-05-08 17:29 | 45.50963 | 0.42750 | 22152 ft | 342 kts | 230° |
| 2026-05-08 17:29 | 45.49562 | 0.40039 | 21729 ft | 339 kts | 230° |
| 2026-05-08 17:29 | 45.48166 | 0.37340 | 21325 ft | 337 kts | 230° |
| 2026-05-08 17:30 | 45.46777 | 0.34663 | 20907 ft | 334 kts | 230° |
| 2026-05-08 17:30 | 45.45397 | 0.32006 | 20493 ft | 332 kts | 230° |
| 2026-05-08 17:30 | 45.44029 | 0.29373 | 20085 ft | 330 kts | 230° |
| 2026-05-08 17:30 | 45.42660 | 0.26740 | 19553 ft | 333 kts | 230° |
| 2026-05-08 17:31 | 45.41263 | 0.24066 | 18818 ft | 342 kts | 230° |
| 2026-05-08 17:31 | 45.39824 | 0.21323 | 18103 ft | 349 kts | 231° |
| 2026-05-08 17:31 | 45.38375 | 0.18556 | 17681 ft | 345 kts | 231° |
| 2026-05-08 17:31 | 45.36952 | 0.15832 | 17209 ft | 343 kts | 231° |
| 2026-05-08 17:32 | 45.35535 | 0.13114 | 16750 ft | 341 kts | 231° |
| 2026-05-08 17:32 | 45.34133 | 0.10408 | 16308 ft | 338 kts | 231° |
| 2026-05-08 17:32 | 45.32758 | 0.07720 | 15890 ft | 336 kts | 232° |
| 2026-05-08 17:32 | 45.31392 | 0.05039 | 15476 ft | 333 kts | 232° |
| 2026-05-08 17:33 | 45.30038 | 0.02387 | 15063 ft | 331 kts | 232° |
| 2026-05-08 17:33 | 45.28690 | -0.00243 | 14543 ft | 326 kts | 231° |
| 2026-05-08 17:33 | 45.27353 | -0.02837 | 13883 ft | 323 kts | 231° |
| 2026-05-08 17:33 | 45.26029 | -0.05402 | 13191 ft | 320 kts | 231° |
| 2026-05-08 17:34 | 45.24725 | -0.07933 | 12474 ft | 316 kts | 231° |
| 2026-05-08 17:34 | 45.23441 | -0.10426 | 11994 ft | 306 kts | 231° |
| 2026-05-08 17:34 | 45.22218 | -0.12798 | 11650 ft | 293 kts | 231° |
| 2026-05-08 17:34 | 45.21023 | -0.15112 | 11143 ft | 287 kts | 231° |
| 2026-05-08 17:35 | 45.19847 | -0.17379 | 10575 ft | 284 kts | 231° |
| 2026-05-08 17:35 | 45.18683 | -0.19622 | 10030 ft | 282 kts | 231° |
| 2026-05-08 17:35 | 45.17526 | -0.21855 | 9429 ft | 279 kts | 232° |
| 2026-05-08 17:35 | 45.16304 | -0.23963 | 8806 ft | 275 kts | 223° |
| 2026-05-08 17:36 | 45.14963 | -0.25879 | 8162 ft | 273 kts | 223° |
| 2026-05-08 17:36 | 45.13628 | -0.27769 | 7533 ft | 271 kts | 223° |
| 2026-05-08 17:36 | 45.12323 | -0.29614 | 7273 ft | 256 kts | 223° |
| 2026-05-08 17:36 | 45.11120 | -0.31326 | 7148 ft | 236 kts | 223° |
| 2026-05-08 17:37 | 45.10003 | -0.32918 | 6974 ft | 221 kts | 223° |
| 2026-05-08 17:37 | 45.08932 | -0.34437 | 6606 ft | 216 kts | 222° |
| 2026-05-08 17:37 | 45.07876 | -0.35930 | 6198 ft | 213 kts | 222° |
| 2026-05-08 17:37 | 45.06861 | -0.37366 | 6054 ft | 200 kts | 222° |
| 2026-05-08 17:38 | 45.05895 | -0.38732 | 5772 ft | 195 kts | 222° |
| 2026-05-08 17:38 | 45.04915 | -0.40057 | 5455 ft | 194 kts | 218° |
| 2026-05-08 17:38 | 45.03919 | -0.41341 | 5224 ft | 193 kts | 220° |
| 2026-05-08 17:38 | 45.02925 | -0.42719 | 4549 ft | 209 kts | 222° |
| 2026-05-08 17:39 | 45.01876 | -0.44221 | 3889 ft | 221 kts | 223° |
| 2026-05-08 17:39 | 45.00822 | -0.45745 | 3764 ft | 210 kts | 223° |
| 2026-05-08 17:39 | 44.99822 | -0.47189 | 3639 ft | 201 kts | 223° |
| 2026-05-08 17:39 | 44.98860 | -0.48576 | 3512 ft | 194 kts | 223° |
| 2026-05-08 17:40 | 44.97930 | -0.49915 | 3350 ft | 189 kts | 223° |
| 2026-05-08 17:40 | 44.97011 | -0.51238 | 3126 ft | 188 kts | 223° |
| 2026-05-08 17:40 | 44.96102 | -0.52546 | 3027 ft | 186 kts | 224° |
| 2026-05-08 17:40 | 44.95233 | -0.53798 | 3012 ft | 172 kts | 223° |
| 2026-05-08 17:41 | 44.94424 | -0.54962 | 2957 ft | 161 kts | 223° |
| 2026-05-08 17:41 | 44.93655 | -0.56068 | 2813 ft | 155 kts | 223° |
| 2026-05-08 17:41 | 44.92919 | -0.57126 | 2638 ft | 148 kts | 222° |
| 2026-05-08 17:41 | 44.92213 | -0.58140 | 2465 ft | 139 kts | 223° |
| 2026-05-08 17:42 | 44.91549 | -0.59093 | 2279 ft | 134 kts | 221° |
| 2026-05-08 17:42 | 44.90902 | -0.60022 | 2101 ft | 131 kts | 223° |
| 2026-05-08 17:42 | 44.90261 | -0.60941 | 1934 ft | 132 kts | 222° |
| 2026-05-08 17:42 | 44.89623 | -0.61855 | 1754 ft | 130 kts | 221° |
| 2026-05-08 17:43 | 44.89000 | -0.62749 | 1589 ft | 129 kts | 221° |
| 2026-05-08 17:43 | 44.88364 | -0.63661 | 1408 ft | 128 kts | 223° |
| 2026-05-08 17:43 | 44.87737 | -0.64561 | 1239 ft | 129 kts | 223° |
| 2026-05-08 17:43 | 44.87113 | -0.65465 | 1035 ft | 129 kts | 221° |
| 2026-05-08 17:44 | 44.86485 | -0.66367 | 858 ft | 129 kts | 221° |
| 2026-05-08 17:44 | 44.85844 | -0.67260 | 778 ft | 132 kts | 222° |
| 2026-05-08 17:44 | 44.85191 | -0.68201 | 538 ft | 133 kts | 222° |
| 2026-05-08 17:44 | 44.84546 | -0.69129 | 316 ft | 133 kts | 220° |
| 2026-05-08 17:45 | 44.83908 | -0.70057 | 202 ft | 132 kts | 221° |
| 2026-05-08 17:45 | 44.83290 | -0.70935 | 165 ft | 113 kts | 223° |
| 2026-05-08 17:45 | 44.82858 | -0.71539 | 166 ft | 69 kts | 227° |
| 2026-05-08 17:45 | 44.82595 | -0.71908 | 167 ft | 28 kts | 210° |
| 2026-05-08 17:46 | 44.82485 | -0.71819 | 166 ft | 19 kts | 129° |
| 2026-05-08 17:46 | 44.82457 | -0.71684 | 166 ft | 10 kts | 57° |
| 2026-05-08 17:46 | 44.82501 | -0.71604 | 166 ft | 11 kts | 46° |
| 2026-05-08 17:46 | 44.82564 | -0.71513 | 166 ft | 15 kts | 46° |
| 2026-05-08 17:47 | 44.82645 | -0.71404 | 166 ft | 18 kts | 43° |
| 2026-05-08 17:47 | 44.82736 | -0.71273 | 165 ft | 20 kts | 45° |
| 2026-05-08 17:47 | 44.82846 | -0.71116 | 165 ft | 24 kts | 46° |
| 2026-05-08 17:47 | 44.82924 | -0.71000 | 165 ft | 24 kts | 46° |
| 2026-05-08 17:48 | 44.83108 | -0.70746 | 164 ft | 29 kts | 44° |
| 2026-05-08 17:48 | 44.83254 | -0.70542 | 163 ft | 30 kts | 45° |
| 2026-05-08 17:48 | 44.83404 | -0.70331 | 162 ft | 30 kts | 45° |
| 2026-05-08 17:48 | 44.83552 | -0.70122 | 161 ft | 31 kts | 45° |
| 2026-05-08 17:49 | 44.83662 | -0.69967 | 161 ft | 6 kts | 38° |
| 2026-05-08 17:49 | 44.83663 | -0.69917 | 161 ft | 11 kts | 134° |
| 2026-05-08 17:49 | 44.83610 | -0.69929 | 161 ft | 7 kts | 265° |
| 2026-05-08 17:49 | 44.83564 | -0.70086 | 161 ft | 22 kts | 228° |
| 2026-05-08 17:50 | 44.83445 | -0.70255 | 162 ft | 31 kts | 225° |
| 2026-05-08 17:50 | 44.83262 | -0.70404 | 163 ft | 30 kts | 226° |
| 2026-05-08 17:50 | 44.83153 | -0.70496 | 164 ft | 13 kts | 149° |
| 2026-05-08 17:50 | 44.83130 | -0.70448 | 164 ft | 3 kts | 114° |
| 2026-05-08 17:51 | 44.83129 | -0.70446 | 164 ft | 0 kts | 114° |